Time;durP1;ratioP1;P1;durP2;ratioP2;P2;SDS_P1;SDS_P2;PMS_P1;PMS_P2;Temp;Humidity;BMP_temperature;BMP_pressure;BME280_temperature;BME280_humidity;BME280_pressure;Samples;Min_cycle;Max_cycle;Signal;HPM_P1;HPM_P2
2022/12/29 00:00:59;;;;;;;10.97;3.37;;;21.20;78.30;;;;;;5050923;28;20654;-71
2022/12/29 00:03:27;;;;;;;13.07;2.93;;;21.30;78.10;;;;;;5051865;28;20191;-72
2022/12/29 00:05:58;;;;;;;15.10;4.97;;;21.40;77.50;;;;;;5050815;28;20227;-72
2022/12/29 00:08:39;;;;;;;10.70;2.90;;;21.70;76.90;;;;;;5054561;28;20206;-71
2022/12/29 00:11:11;;;;;;;15.80;3.20;;;21.90;75.80;;;;;;5051401;28;20266;-69
2022/12/29 00:16:25;;;;;;;12.50;2.60;;;21.90;75.20;;;;;;5049929;28;20187;-71
2022/12/29 00:18:53;;;;;;;14.33;2.90;;;21.90;74.60;;;;;;5054218;28;20586;-69
2022/12/29 00:35:35;;;;;;;13.60;3.13;;;21.30;76.80;;;;;;5052160;28;20195;-70
2022/12/29 00:46:22;;;;;;;15.83;3.37;;;21.40;76.20;;;;;;5052439;28;20226;-71
2022/12/29 00:51:34;;;;;;;19.97;3.80;;;21.90;74.60;;;;;;5049263;28;20254;-70
2022/12/29 00:54:02;;;;;;;16.60;3.77;;;22.10;74.00;;;;;;5052620;28;20233;-70
2022/12/29 00:56:29;;;;;;;17.80;3.60;;;22.30;73.10;;;;;;5048588;28;20202;-69
2022/12/29 00:59:00;;;;;;;16.17;3.37;;;22.50;72.50;;;;;;5053056;28;20184;-68
2022/12/29 01:01:27;;;;;;;15.77;3.40;;;22.30;72.20;;;;;;5053354;28;20207;-74
2022/12/29 01:03:55;;;;;;;18.20;3.70;;;22.30;72.70;;;;;;5053424;28;20279;-72
2022/12/29 01:06:22;;;;;;;17.70;4.30;;;22.30;72.00;;;;;;5052603;28;20560;-70
2022/12/29 01:10:09;;;;;;;13.50;3.57;;;22.30;72.40;;;;;;5045998;28;20192;-71
2022/12/29 01:11:39;;;;;;;27.57;4.53;;;22.20;72.90;;;;;;5051585;28;20211;-72
2022/12/29 01:14:07;;;;;;;17.23;4.23;;;22.20;72.50;;;;;;5052714;28;20271;-70
2022/12/29 01:16:36;;;;;;;19.87;4.20;;;21.90;73.40;;;;;;5052081;28;20184;-71
2022/12/29 01:19:04;;;;;;;24.40;4.70;;;22.00;73.20;;;;;;5050505;28;20183;-72
2022/12/29 01:21:32;;;;;;;22.20;3.93;;;22.00;73.20;;;;;;5045463;28;20249;-70
2022/12/29 01:23:59;;;;;;;18.77;4.80;;;21.90;73.30;;;;;;5048804;28;20262;-70
2022/12/29 01:26:27;;;;;;;20.00;4.27;;;21.80;74.00;;;;;;5052409;28;20263;-70
2022/12/29 01:28:54;;;;;;;23.40;4.03;;;21.90;73.80;;;;;;5051786;28;20210;-70
2022/12/29 01:31:21;;;;;;;15.17;4.07;;;22.00;73.30;;;;;;5051102;28;20187;-72
2022/12/29 01:33:49;;;;;;;20.07;4.40;;;22.00;73.20;;;;;;5047731;28;20184;-69
2022/12/29 01:36:18;;;;;;;15.87;3.93;;;22.10;73.30;;;;;;5046158;28;20643;-69
2022/12/29 01:38:45;;;;;;;18.57;4.10;;;22.00;73.10;;;;;;5048849;28;20189;-71
2022/12/29 01:41:14;;;;;;;19.23;3.80;;;22.20;72.90;;;;;;5050360;28;20593;-70
2022/12/29 01:44:00;;;;;;;13.83;3.20;;;22.30;72.30;;;;;;5051144;28;20195;-69
2022/12/29 01:46:31;;;;;;;16.80;4.10;;;22.40;71.80;;;;;;5042384;28;20246;-69
2022/12/29 01:49:08;;;;;;;14.43;4.17;;;22.40;71.60;;;;;;5052377;28;20564;-71
2022/12/29 01:51:48;;;;;;;17.40;3.83;;;22.30;71.60;;;;;;5049309;28;20640;-71
2022/12/29 01:54:40;;;;;;;14.60;3.77;;;22.40;71.40;;;;;;5050578;28;20188;-69
2022/12/29 01:57:12;;;;;;;15.83;3.80;;;22.50;71.60;;;;;;5050570;28;20274;-69
2022/12/29 01:59:54;;;;;;;18.03;3.70;;;22.50;71.00;;;;;;5050154;28;20218;-70
2022/12/29 02:02:21;;;;;;;22.67;3.83;;;22.60;70.50;;;;;;5046058;28;20188;-70
2022/12/29 02:04:49;;;;;;;16.40;3.57;;;22.70;70.70;;;;;;5050261;28;20250;-70
2022/12/29 02:07:22;;;;;;;14.00;3.53;;;22.60;70.80;;;;;;5046888;28;20202;-71
2022/12/29 02:09:51;;;;;;;16.60;3.87;;;22.50;71.30;;;;;;5050424;28;20275;-69
2022/12/29 02:12:21;;;;;;;20.13;6.57;;;22.30;71.90;;;;;;5050349;28;20176;-72
2022/12/29 02:14:52;;;;;;;12.53;3.87;;;22.40;72.10;;;;;;5051832;28;20176;-71
2022/12/29 02:17:54;;;;;;;16.83;4.07;;;22.60;72.30;;;;;;5050145;28;20634;-69
2022/12/29 02:20:51;;;;;;;12.17;3.40;;;22.70;71.60;;;;;;5032554;28;20192;-70
2022/12/29 02:23:21;;;;;;;16.77;3.60;;;22.60;71.10;;;;;;5049139;28;20646;-73
2022/12/29 02:26:13;;;;;;;12.83;3.57;;;22.40;72.00;;;;;;5049113;28;20219;-69
2022/12/29 02:28:49;;;;;;;17.17;4.00;;;22.50;72.00;;;;;;5046408;28;20188;-69
2022/12/29 02:31:25;;;;;;;13.77;3.90;;;22.80;71.50;;;;;;5049415;28;20183;-71
2022/12/29 02:34:28;;;;;;;13.37;3.37;;;22.90;70.80;;;;;;5049658;28;20258;-69
2022/12/29 02:37:27;;;;;;;13.13;3.47;;;23.00;70.80;;;;;;5049643;28;20183;-73
2022/12/29 02:40:07;;;;;;;16.60;3.37;;;23.30;69.70;;;;;;5048922;28;20716;-72
2022/12/29 02:42:47;;;;;;;12.83;3.57;;;23.50;69.70;;;;;;5049858;28;20245;-72
2022/12/29 02:45:29;;;;;;;14.70;3.57;;;23.40;68.80;;;;;;5049600;28;20565;-75
2022/12/29 02:48:02;;;;;;;14.23;3.60;;;23.30;68.50;;;;;;5051282;28;20186;-69
2022/12/29 02:50:42;;;;;;;11.63;3.03;;;23.30;68.90;;;;;;5049299;28;20247;-70
2022/12/29 02:53:14;;;;;;;11.10;2.90;;;23.10;69.90;;;;;;5046997;28;20181;-71
2022/12/29 02:55:49;;;;;;;12.63;3.80;;;23.00;69.30;;;;;;5044547;28;20219;-71
2022/12/29 02:58:22;;;;;;;12.33;3.60;;;22.80;70.50;;;;;;5046657;28;20267;-70
2022/12/29 03:01:01;;;;;;;8.53;3.20;;;22.70;71.00;;;;;;5049277;28;20677;-70
2022/12/29 03:04:03;;;;;;;13.33;3.70;;;22.80;71.20;;;;;;5045908;28;20186;-72
2022/12/29 03:06:51;;;;;;;9.40;3.07;;;22.80;70.80;;;;;;5048861;28;20191;-72
2022/12/29 03:09:43;;;;;;;12.60;3.33;;;23.00;70.60;;;;;;5044895;28;20179;-70
2022/12/29 03:16:02;;;;;;;9.07;2.97;;;23.30;69.90;;;;;;5051192;28;20309;-73
2022/12/29 03:18:46;;;;;;;11.33;2.97;;;23.30;69.80;;;;;;5051808;28;20184;-70
2022/12/29 03:21:20;;;;;;;8.00;3.30;;;23.40;69.90;;;;;;5057535;28;20192;-72
2022/12/29 03:23:51;;;;;;;10.63;3.47;;;23.50;69.80;;;;;;5055358;28;20179;-69
2022/12/29 03:26:21;;;;;;;11.43;3.17;;;23.60;69.80;;;;;;5054863;28;20265;-71
2022/12/29 03:28:57;;;;;;;14.10;3.47;;;23.40;69.60;;;;;;5054639;28;20538;-71
2022/12/29 03:31:25;;;;;;;11.80;3.23;;;23.30;70.30;;;;;;5053067;28;20215;-72
2022/12/29 03:33:53;;;;;;;12.90;3.13;;;23.40;70.60;;;;;;5051113;28;20579;-71
2022/12/29 03:36:31;;;;;;;9.50;2.83;;;23.30;70.60;;;;;;5057528;28;20206;-73
2022/12/29 03:39:12;;;;;;;10.13;2.93;;;23.30;71.10;;;;;;5048494;28;20183;-72
2022/12/29 03:41:44;;;;;;;13.50;2.70;;;23.40;70.90;;;;;;5053576;28;20684;-71
2022/12/29 03:44:13;;;;;;;12.93;3.50;;;23.40;70.80;;;;;;5048662;28;20181;-70
2022/12/29 03:46:40;;;;;;;17.20;3.17;;;23.30;70.80;;;;;;5053834;28;20330;-70
2022/12/29 03:49:07;;;;;;;15.80;3.30;;;23.20;71.00;;;;;;5051574;28;20520;-74
2022/12/29 03:51:35;;;;;;;10.43;3.13;;;23.20;71.10;;;;;;5054173;28;20737;-72
2022/12/29 03:54:02;;;;;;;13.47;3.17;;;23.20;71.10;;;;;;5057878;28;20631;-74
2022/12/29 03:56:30;;;;;;;8.23;2.97;;;23.30;70.40;;;;;;5053105;28;20788;-72
2022/12/29 03:58:57;;;;;;;10.77;3.07;;;23.40;70.20;;;;;;5057836;28;20207;-69
2022/12/29 04:01:25;;;;;;;11.63;3.57;;;23.40;70.40;;;;;;5055117;28;20187;-70
2022/12/29 04:03:55;;;;;;;13.90;3.30;;;23.50;70.50;;;;;;5054237;28;20795;-70
2022/12/29 04:06:23;;;;;;;14.90;3.50;;;23.70;69.90;;;;;;5053929;28;20255;-70
2022/12/29 04:08:50;;;;;;;10.33;3.20;;;23.80;69.80;;;;;;5055562;28;20200;-70
2022/12/29 04:11:18;;;;;;;10.40;3.10;;;23.70;70.20;;;;;;5047380;28;20807;-70
2022/12/29 04:13:45;;;;;;;10.57;3.20;;;23.90;69.80;;;;;;5051368;28;20574;-69
2022/12/29 04:16:12;;;;;;;10.03;2.83;;;24.10;68.80;;;;;;5055394;28;20686;-71
2022/12/29 04:18:40;;;;;;;9.73;2.90;;;24.00;69.10;;;;;;5056910;27;20184;-71
2022/12/29 04:21:07;;;;;;;10.93;2.63;;;24.10;68.90;;;;;;5052056;28;20175;-72
2022/12/29 04:23:37;;;;;;;13.77;3.30;;;24.00;68.50;;;;;;5052546;28;20234;-70
2022/12/29 04:26:09;;;;;;;7.40;2.97;;;24.00;68.60;;;;;;5051064;28;20216;-70
2022/12/29 04:28:37;;;;;;;11.33;3.23;;;23.90;68.70;;;;;;5051350;28;20180;-72
2022/12/29 04:31:05;;;;;;;7.93;2.70;;;23.80;69.20;;;;;;5052127;28;20187;-71
2022/12/29 04:33:32;;;;;;;10.27;2.93;;;23.70;69.70;;;;;;5049405;28;21488;-69
2022/12/29 04:35:59;;;;;;;10.87;2.50;;;23.80;68.90;;;;;;5050644;28;20255;-70
2022/12/29 04:38:27;;;;;;;9.20;2.47;;;23.70;69.00;;;;;;5053994;28;20190;-71
2022/12/29 04:40:54;;;;;;;11.70;2.80;;;23.60;69.50;;;;;;5049331;28;20665;-71
2022/12/29 04:43:22;;;;;;;12.63;3.43;;;23.50;69.50;;;;;;5053438;28;20180;-70
2022/12/29 04:45:52;;;;;;;11.60;2.87;;;23.50;69.70;;;;;;5052194;28;20208;-70
2022/12/29 04:48:20;;;;;;;14.10;3.60;;;23.40;70.10;;;;;;5049844;28;20180;-70
2022/12/29 04:50:49;;;;;;;13.07;3.50;;;23.30;70.20;;;;;;5047844;28;20234;-71
2022/12/29 04:53:18;;;;;;;9.90;2.97;;;23.20;70.40;;;;;;5050907;28;20184;-71
2022/12/29 04:55:49;;;;;;;11.57;2.83;;;23.10;70.60;;;;;;5052664;28;20195;-68
2022/12/29 04:58:16;;;;;;;9.50;2.73;;;23.10;70.40;;;;;;5049231;28;20224;-68
2022/12/29 05:00:43;;;;;;;11.50;3.10;;;23.00;70.80;;;;;;5047740;28;20184;-69
2022/12/29 05:03:10;;;;;;;19.10;10.63;;;22.90;71.20;;;;;;5050675;28;20215;-69
2022/12/29 05:05:38;;;;;;;11.43;5.53;;;23.00;71.70;;;;;;5048576;28;20311;-70
2022/12/29 05:08:05;;;;;;;11.00;2.93;;;23.00;71.40;;;;;;5079598;27;20180;-69
2022/12/29 05:10:33;;;;;;;12.40;3.83;;;23.00;71.40;;;;;;5053142;28;20184;-70
2022/12/29 05:13:00;;;;;;;14.17;3.27;;;23.10;71.00;;;;;;5051512;28;20188;-71
2022/12/29 05:15:30;;;;;;;11.83;3.00;;;23.00;71.60;;;;;;5052666;28;20192;-69
2022/12/29 05:17:58;;;;;;;12.90;3.43;;;22.80;72.00;;;;;;5052126;28;20207;-71
2022/12/29 05:20:25;;;;;;;17.03;3.70;;;22.80;72.30;;;;;;5049169;28;20189;-68
2022/12/29 05:22:52;;;;;;;17.27;4.30;;;22.70;72.50;;;;;;5054296;28;20224;-68
2022/12/29 05:25:20;;;;;;;14.10;3.60;;;22.60;73.50;;;;;;5049496;28;20246;-68
2022/12/29 05:27:47;;;;;;;18.30;3.80;;;22.60;73.50;;;;;;5048867;28;20187;-71
2022/12/29 05:30:14;;;;;;;10.77;3.10;;;22.80;73.40;;;;;;5051436;28;20207;-71
2022/12/29 05:32:41;;;;;;;13.27;3.57;;;22.80;73.00;;;;;;5047651;28;20184;-68
2022/12/29 05:35:09;;;;;;;13.47;3.53;;;22.80;73.00;;;;;;5049576;28;20182;-69
2022/12/29 05:37:36;;;;;;;16.00;3.37;;;22.60;72.80;;;;;;5051504;28;20707;-71
2022/12/29 05:40:04;;;;;;;13.10;3.03;;;22.60;72.50;;;;;;5049986;28;20231;-70
2022/12/29 05:42:32;;;;;;;14.57;3.50;;;22.60;73.20;;;;;;5051854;28;20177;-69
2022/12/29 05:44:59;;;;;;;18.10;3.30;;;22.50;73.30;;;;;;5051987;28;20595;-68
2022/12/29 05:47:27;;;;;;;14.13;3.30;;;22.40;73.00;;;;;;5046776;28;20274;-68
2022/12/29 05:49:54;;;;;;;11.77;3.43;;;22.30;73.90;;;;;;5050646;28;20184;-67
2022/12/29 05:52:21;;;;;;;16.53;3.73;;;22.30;74.60;;;;;;5048068;28;20184;-70
2022/12/29 05:54:48;;;;;;;13.40;3.50;;;22.30;74.50;;;;;;5048528;28;20191;-69
2022/12/29 05:57:16;;;;;;;13.53;3.23;;;22.30;74.40;;;;;;5051174;28;20192;-69
2022/12/29 05:59:43;;;;;;;14.27;3.37;;;22.40;74.40;;;;;;5050962;28;20241;-71
2022/12/29 06:02:10;;;;;;;18.07;3.40;;;22.40;74.40;;;;;;5050032;28;20662;-69
2022/12/29 06:04:38;;;;;;;15.47;3.10;;;22.60;74.40;;;;;;5045679;28;20212;-68
2022/12/29 06:07:05;;;;;;;18.07;3.47;;;22.80;73.70;;;;;;5048120;28;20245;-71
2022/12/29 06:09:32;;;;;;;10.20;3.33;;;22.60;73.50;;;;;;5048734;28;20184;-72
2022/12/29 06:12:00;;;;;;;15.97;2.90;;;22.60;73.60;;;;;;5050379;28;20211;-72
2022/12/29 06:14:27;;;;;;;16.20;3.80;;;22.60;73.60;;;;;;5050111;28;20216;-69
2022/12/29 06:16:54;;;;;;;15.40;3.70;;;22.30;74.40;;;;;;5049385;28;20191;-71
2022/12/29 06:19:22;;;;;;;13.83;3.37;;;22.30;74.10;;;;;;5051807;28;20674;-70
2022/12/29 06:21:49;;;;;;;13.67;3.03;;;22.20;75.20;;;;;;5047515;28;20199;-71
2022/12/29 06:24:16;;;;;;;9.77;3.10;;;22.00;75.50;;;;;;5047887;28;20282;-70
2022/12/29 06:26:43;;;;;;;15.63;3.53;;;22.00;75.50;;;;;;5047858;28;20275;-69
2022/12/29 06:29:13;;;;;;;15.40;3.33;;;21.80;76.10;;;;;;5046674;28;20180;-69
2022/12/29 06:31:40;;;;;;;15.27;3.60;;;21.90;76.10;;;;;;5046966;28;20198;-68
2022/12/29 06:34:07;;;;;;;15.00;3.57;;;21.80;76.50;;;;;;5047376;28;20245;-67
2022/12/29 06:36:35;;;;;;;16.37;3.20;;;21.80;76.20;;;;;;5049511;28;20552;-68
2022/12/29 06:39:02;;;;;;;11.33;3.17;;;21.80;76.80;;;;;;5048117;28;20183;-68
2022/12/29 06:41:29;;;;;;;17.13;3.73;;;21.80;76.90;;;;;;5046585;28;20723;-68
2022/12/29 06:43:56;;;;;;;13.83;3.27;;;21.80;76.20;;;;;;5047644;28;20176;-69
2022/12/29 06:46:24;;;;;;;11.60;3.07;;;21.70;77.40;;;;;;5047282;28;20295;-67
2022/12/29 06:48:51;;;;;;;12.77;2.67;;;21.60;77.30;;;;;;5047671;28;20547;-68
2022/12/29 06:51:18;;;;;;;18.03;4.30;;;21.60;77.90;;;;;;5050570;28;20251;-68
2022/12/29 06:53:46;;;;;;;14.50;3.53;;;21.60;78.50;;;;;;5049202;28;20295;-67
2022/12/29 06:56:13;;;;;;;14.03;3.63;;;21.60;78.00;;;;;;5045771;28;20698;-68
2022/12/29 06:58:40;;;;;;;14.27;3.57;;;21.50;78.70;;;;;;5046488;28;20191;-68
2022/12/29 07:01:08;;;;;;;13.23;3.27;;;21.50;78.60;;;;;;5048206;28;20187;-68
2022/12/29 07:03:35;;;;;;;18.97;3.50;;;21.40;78.70;;;;;;5046907;28;20579;-69
2022/12/29 07:06:02;;;;;;;12.20;3.40;;;21.50;78.70;;;;;;5050581;28;20306;-67
2022/12/29 07:08:30;;;;;;;18.07;3.97;;;21.40;78.80;;;;;;5050378;28;20176;-71
2022/12/29 07:10:57;;;;;;;13.63;3.30;;;21.40;79.30;;;;;;5042360;28;20184;-68
2022/12/29 07:13:24;;;;;;;12.13;4.07;;;21.40;79.20;;;;;;5043040;28;20198;-72
2022/12/29 07:15:52;;;;;;;15.03;3.50;;;21.30;79.30;;;;;;5048253;28;20211;-68
2022/12/29 07:18:19;;;;;;;13.33;3.30;;;21.10;79.50;;;;;;5049194;28;20188;-67
2022/12/29 07:20:47;;;;;;;14.27;3.20;;;21.10;79.70;;;;;;5047539;28;20184;-68
2022/12/29 07:23:14;;;;;;;12.43;3.40;;;21.10;80.10;;;;;;5049997;28;20298;-67
2022/12/29 07:25:41;;;;;;;17.40;3.20;;;21.10;80.10;;;;;;5040549;28;20293;-68
2022/12/29 07:28:09;;;;;;;15.97;3.70;;;21.10;80.30;;;;;;5050307;28;20180;-69
2022/12/29 07:30:38;;;;;;;13.93;3.27;;;21.10;80.00;;;;;;5046735;28;20851;-68
2022/12/29 07:33:05;;;;;;;14.90;3.60;;;21.10;80.40;;;;;;5041905;28;20179;-68
2022/12/29 07:35:34;;;;;;;15.13;3.40;;;21.00;80.10;;;;;;5045180;28;20188;-70
2022/12/29 07:38:02;;;;;;;14.83;3.60;;;21.00;80.30;;;;;;5049711;28;20183;-70
2022/12/29 07:40:29;;;;;;;17.00;3.37;;;20.90;80.80;;;;;;5045404;28;20196;-68
2022/12/29 07:42:56;;;;;;;20.20;3.80;;;20.80;80.50;;;;;;5049535;28;20229;-67
2022/12/29 07:45:23;;;;;;;13.20;2.83;;;20.80;80.90;;;;;;5053618;28;20256;-68
2022/12/29 07:47:51;;;;;;;14.53;3.77;;;20.80;81.40;;;;;;5044011;28;20208;-68
2022/12/29 07:50:18;;;;;;;20.07;3.53;;;20.80;81.70;;;;;;5045511;28;20216;-68
2022/12/29 07:52:47;;;;;;;10.43;3.00;;;20.80;81.50;;;;;;5050235;28;20184;-68
2022/12/29 07:55:18;;;;;;;16.23;3.50;;;20.80;81.70;;;;;;5048012;28;20541;-70
2022/12/29 07:57:45;;;;;;;16.30;3.40;;;20.70;81.50;;;;;;5053709;28;20184;-71
2022/12/29 08:00:13;;;;;;;14.90;3.30;;;20.60;81.90;;;;;;5051024;28;20275;-69
2022/12/29 08:02:41;;;;;;;15.23;3.00;;;20.70;82.10;;;;;;5054779;28;20172;-69
2022/12/29 08:05:08;;;;;;;12.20;3.17;;;20.60;81.90;;;;;;5049720;28;20244;-70
2022/12/29 08:07:36;;;;;;;11.73;3.10;;;20.50;81.90;;;;;;5054472;28;20267;-69
2022/12/29 08:10:03;;;;;;;18.43;3.47;;;20.50;82.10;;;;;;5046310;28;20270;-69
2022/12/29 08:12:30;;;;;;;17.90;3.33;;;20.60;82.10;;;;;;5053210;28;20179;-69
2022/12/29 08:14:58;;;;;;;13.20;3.33;;;20.50;82.20;;;;;;5053256;28;20207;-70
2022/12/29 08:17:25;;;;;;;14.83;3.23;;;20.50;82.30;;;;;;5053152;28;20642;-71
2022/12/29 08:19:53;;;;;;;14.20;3.33;;;20.40;82.20;;;;;;5053463;28;20183;-69
2022/12/29 08:22:20;;;;;;;16.10;3.67;;;20.40;82.10;;;;;;5053673;28;20183;-68
2022/12/29 08:24:48;;;;;;;13.10;4.17;;;20.30;82.50;;;;;;5049099;28;20243;-68
2022/12/29 08:27:15;;;;;;;15.63;3.67;;;20.40;82.60;;;;;;5051609;28;20199;-69
2022/12/29 08:29:42;;;;;;;11.57;3.20;;;20.40;82.70;;;;;;5048392;28;20195;-69
2022/12/29 08:32:10;;;;;;;13.70;3.60;;;20.30;82.70;;;;;;5048741;28;20183;-69
2022/12/29 08:34:37;;;;;;;12.87;3.20;;;20.40;82.80;;;;;;5051669;28;20662;-69
2022/12/29 08:37:05;;;;;;;14.63;3.50;;;20.30;82.70;;;;;;5050696;28;20187;-69
2022/12/29 08:39:32;;;;;;;14.13;3.00;;;20.30;82.80;;;;;;5049657;28;20180;-70
2022/12/29 08:41:59;;;;;;;13.10;3.53;;;20.30;83.00;;;;;;5050563;28;20186;-68
2022/12/29 08:44:26;;;;;;;15.10;3.60;;;20.30;83.00;;;;;;5050552;28;21271;-71
2022/12/29 08:46:54;;;;;;;13.77;3.10;;;20.30;83.00;;;;;;5051874;28;20192;-70
2022/12/29 08:49:21;;;;;;;12.37;3.47;;;20.30;83.10;;;;;;5042703;28;20218;-70
2022/12/29 08:51:48;;;;;;;14.33;2.93;;;20.30;82.90;;;;;;5048335;28;20302;-70
2022/12/29 08:54:16;;;;;;;15.03;3.20;;;20.30;83.00;;;;;;5076783;28;20337;-70
2022/12/29 08:56:43;;;;;;;14.30;3.50;;;20.20;82.70;;;;;;5042463;28;20795;-67
2022/12/29 08:59:10;;;;;;;18.37;3.80;;;20.20;82.70;;;;;;5046740;28;20233;-69
2022/12/29 09:01:40;;;;;;;12.67;3.73;;;20.20;83.00;;;;;;5044416;28;20188;-71
2022/12/29 09:04:08;;;;;;;10.83;3.63;;;20.30;83.30;;;;;;5043032;28;20200;-69
2022/12/29 09:06:36;;;;;;;16.90;3.60;;;20.20;83.20;;;;;;5049172;28;20281;-72
2022/12/29 09:09:03;;;;;;;13.80;3.50;;;20.10;83.60;;;;;;5040666;28;20172;-69
2022/12/29 09:11:31;;;;;;;18.97;3.77;;;20.00;84.00;;;;;;5042375;28;20273;-70
2022/12/29 09:13:58;;;;;;;13.60;3.33;;;20.10;84.10;;;;;;5045686;28;20192;-70
2022/12/29 09:16:26;;;;;;;14.30;3.90;;;20.10;84.10;;;;;;5040774;28;20181;-72
2022/12/29 09:18:54;;;;;;;17.63;3.50;;;20.10;84.20;;;;;;5053643;28;20227;-70
2022/12/29 09:21:21;;;;;;;13.70;3.10;;;20.00;84.40;;;;;;5048261;28;20188;-72
2022/12/29 09:23:49;;;;;;;13.73;3.67;;;20.10;84.60;;;;;;5046473;28;20210;-70
2022/12/29 09:26:16;;;;;;;19.60;3.40;;;20.00;84.40;;;;;;5049599;28;20223;-68
2022/12/29 09:28:44;;;;;;;11.97;3.20;;;20.10;84.40;;;;;;5050522;28;20282;-68
2022/12/29 09:31:11;;;;;;;17.03;3.73;;;20.10;84.80;;;;;;5049666;28;20669;-71
2022/12/29 09:33:39;;;;;;;15.10;3.17;;;20.10;84.70;;;;;;5046568;28;20182;-70
2022/12/29 09:36:06;;;;;;;20.50;3.93;;;20.10;84.70;;;;;;5045103;28;20184;-70
2022/12/29 09:38:34;;;;;;;13.53;3.37;;;20.10;84.70;;;;;;5044362;28;20654;-69
2022/12/29 09:41:22;;;;;;;18.20;3.87;;;20.10;84.90;;;;;;5046981;28;20215;-70
2022/12/29 09:44:22;;;;;;;14.30;3.97;;;20.10;84.70;;;;;;5045442;28;20548;-71
2022/12/29 09:46:52;;;;;;;21.53;3.67;;;20.10;84.80;;;;;;5026481;28;20199;-68
2022/12/29 09:49:26;;;;;;;12.90;3.43;;;20.10;84.80;;;;;;5051093;28;20188;-68
2022/12/29 09:52:03;;;;;;;11.67;3.47;;;20.00;84.80;;;;;;5046942;28;20266;-68
2022/12/29 09:54:46;;;;;;;13.03;3.20;;;20.00;84.70;;;;;;5042464;28;20188;-70
2022/12/29 09:57:57;;;;;;;9.87;3.33;;;20.10;84.70;;;;;;5050745;28;20210;-67
2022/12/29 10:00:44;;;;;;;10.33;2.53;;;20.00;84.60;;;;;;5005853;28;20787;-68
2022/12/29 10:03:21;;;;;;;12.07;3.27;;;20.00;84.80;;;;;;5006620;28;20352;-69
2022/12/29 10:05:50;;;;;;;13.20;2.80;;;20.00;84.40;;;;;;5035920;28;20289;-69
2022/12/29 10:08:50;;;;;;;13.63;3.20;;;20.00;84.40;;;;;;5049254;28;20534;-69
2022/12/29 10:11:26;;;;;;;14.40;3.53;;;20.00;84.50;;;;;;5049024;28;20318;-69
2022/12/29 10:14:35;;;;;;;15.17;3.80;;;20.10;84.80;;;;;;5051272;28;20188;-69
2022/12/29 10:17:46;;;;;;;12.70;3.47;;;20.00;84.70;;;;;;5050356;28;20256;-68
2022/12/29 10:20:13;;;;;;;22.30;4.07;;;20.00;85.00;;;;;;5048891;28;20255;-70
2022/12/29 10:22:51;;;;;;;14.73;3.40;;;20.00;84.90;;;;;;5046897;28;20176;-69
2022/12/29 10:25:26;;;;;;;16.33;3.83;;;20.00;85.00;;;;;;5049472;28;20204;-70
2022/12/29 10:27:57;;;;;;;17.57;2.97;;;20.00;85.10;;;;;;5049273;28;20203;-70
2022/12/29 10:30:24;;;;;;;14.63;2.93;;;20.00;85.00;;;;;;5041509;28;20188;-71
2022/12/29 10:33:16;;;;;;;20.67;3.50;;;20.00;84.90;;;;;;5049260;28;20197;-69
2022/12/29 10:35:43;;;;;;;14.97;3.50;;;19.90;85.10;;;;;;5047688;28;20183;-70
2022/12/29 10:38:29;;;;;;;23.57;4.23;;;19.90;85.30;;;;;;5044955;28;20176;-69
2022/12/29 10:41:18;;;;;;;23.53;4.27;;;19.90;85.20;;;;;;5049313;28;20183;-71
2022/12/29 10:43:47;;;;;;;19.10;4.03;;;20.00;85.30;;;;;;5045493;28;20459;-72
2022/12/29 10:46:24;;;;;;;12.23;3.03;;;20.00;85.00;;;;;;5048889;28;20206;-72
2022/12/29 10:48:51;;;;;;;15.83;3.33;;;20.00;84.60;;;;;;5045574;28;20233;-72
2022/12/29 10:51:31;;;;;;;19.60;3.63;;;20.00;84.70;;;;;;5047109;28;20334;-70
2022/12/29 10:54:46;;;;;;;13.80;3.00;;;20.10;84.90;;;;;;5047622;28;20435;-70
2022/12/29 10:57:44;;;;;;;12.87;3.37;;;20.00;84.80;;;;;;5046837;28;20282;-69
2022/12/29 11:00:29;;;;;;;18.93;3.87;;;20.00;84.70;;;;;;5037467;28;20252;-72
2022/12/29 11:03:06;;;;;;;17.83;3.77;;;20.00;84.90;;;;;;5047174;28;20313;-71
2022/12/29 11:05:58;;;;;;;15.80;4.30;;;20.00;84.90;;;;;;5048495;28;20673;-72
2022/12/29 11:08:58;;;;;;;23.20;4.30;;;20.00;85.00;;;;;;5049256;28;20634;-69
2022/12/29 11:11:33;;;;;;;20.77;4.20;;;20.00;85.10;;;;;;5050273;28;20549;-72
2022/12/29 11:14:26;;;;;;;24.30;3.40;;;19.90;85.10;;;;;;5048036;28;20184;-72
2022/12/29 11:17:01;;;;;;;17.00;3.60;;;19.90;85.40;;;;;;5046118;28;20180;-72
2022/12/29 11:19:32;;;;;;;23.07;4.27;;;19.80;85.50;;;;;;5047062;28;20180;-72
2022/12/29 11:22:23;;;;;;;16.00;3.63;;;19.90;85.40;;;;;;5051386;28;20176;-69
2022/12/29 11:24:52;;;;;;;19.77;3.43;;;19.80;85.40;;;;;;5050863;28;20210;-69
2022/12/29 11:27:22;;;;;;;15.67;3.17;;;19.90;85.30;;;;;;5048091;28;20199;-69
2022/12/29 11:29:51;;;;;;;19.43;3.77;;;19.90;85.30;;;;;;5047307;28;20182;-69
2022/12/29 11:32:19;;;;;;;12.07;3.30;;;19.90;85.30;;;;;;5049308;28;20681;-69
2022/12/29 11:34:47;;;;;;;16.03;3.23;;;19.90;85.40;;;;;;5047428;28;20192;-68
2022/12/29 11:37:40;;;;;;;25.20;3.70;;;19.90;85.50;;;;;;5047190;28;20178;-69
2022/12/29 11:40:19;;;;;;;11.83;3.20;;;19.80;85.70;;;;;;5052036;28;20194;-68
2022/12/29 11:42:56;;;;;;;16.10;3.50;;;19.80;85.80;;;;;;5054794;28;20626;-70
2022/12/29 11:45:26;;;;;;;16.27;3.13;;;19.80;85.90;;;;;;5054696;28;20294;-70
2022/12/29 11:47:58;;;;;;;12.67;3.20;;;19.80;85.80;;;;;;5051240;28;20184;-69
2022/12/29 11:50:32;;;;;;;20.73;3.73;;;19.80;85.80;;;;;;5053700;28;20216;-70
2022/12/29 11:53:19;;;;;;;10.93;2.83;;;19.90;86.00;;;;;;5048019;28;20188;-70
2022/12/29 11:56:02;;;;;;;19.50;4.00;;;19.80;85.90;;;;;;5053160;28;20269;-69
2022/12/29 11:58:35;;;;;;;12.97;3.37;;;19.80;85.90;;;;;;5049953;28;20190;-69
2022/12/29 12:01:40;;;;;;;15.10;2.90;;;19.90;86.00;;;;;;5051327;28;20214;-69
2022/12/29 12:04:21;;;;;;;14.07;3.10;;;19.90;85.70;;;;;;5048601;28;20191;-69
2022/12/29 12:07:14;;;;;;;18.63;3.20;;;19.90;86.00;;;;;;5046108;28;20192;-69
2022/12/29 12:09:53;;;;;;;10.87;2.70;;;19.90;86.30;;;;;;5050423;28;20180;-70
2022/12/29 12:12:38;;;;;;;12.03;2.77;;;19.90;86.20;;;;;;5053261;28;20188;-70
2022/12/29 12:15:05;;;;;;;9.37;2.27;;;19.90;86.20;;;;;;5049744;28;20186;-71
2022/12/29 12:17:48;;;;;;;13.03;2.63;;;19.90;86.10;;;;;;5049993;28;20641;-69
2022/12/29 12:20:33;;;;;;;14.63;2.83;;;19.90;86.30;;;;;;5046072;28;20226;-71
2022/12/29 12:23:45;;;;;;;14.03;2.60;;;19.80;86.10;;;;;;5047161;28;20184;-69
2022/12/29 12:26:56;;;;;;;15.73;3.17;;;19.90;86.20;;;;;;5052541;28;20226;-72
2022/12/29 12:29:51;;;;;;;17.07;2.93;;;19.90;86.20;;;;;;5027083;28;20206;-69
2022/12/29 12:32:43;;;;;;;9.83;2.77;;;19.80;86.50;;;;;;5043939;28;20185;-70
2022/12/29 12:35:37;;;;;;;10.47;2.87;;;19.80;86.70;;;;;;5050522;28;20639;-70
2022/12/29 12:38:26;;;;;;;9.87;2.50;;;19.80;86.70;;;;;;5049276;28;20188;-72
2022/12/29 12:41:09;;;;;;;10.63;2.70;;;19.80;86.60;;;;;;5052045;28;20180;-70
2022/12/29 12:43:45;;;;;;;9.80;2.60;;;19.80;86.70;;;;;;5047547;28;20642;-69
2022/12/29 12:46:52;;;;;;;12.83;2.73;;;19.80;86.70;;;;;;5048696;28;21085;-69
2022/12/29 12:49:45;;;;;;;11.53;2.40;;;19.80;86.70;;;;;;5049864;28;20215;-69
2022/12/29 12:52:50;;;;;;;9.17;2.57;;;19.80;86.70;;;;;;5052310;28;20238;-70
2022/12/29 12:55:41;;;;;;;7.37;2.00;;;19.80;86.80;;;;;;5046695;28;20191;-72
2022/12/29 12:58:23;;;;;;;8.77;2.40;;;19.80;86.70;;;;;;5046768;28;20180;-70
2022/12/29 13:01:14;;;;;;;12.00;2.17;;;19.80;86.60;;;;;;5053549;28;20839;-69
2022/12/29 13:04:00;;;;;;;10.03;2.70;;;19.80;86.70;;;;;;5045566;28;20266;-70
2022/12/29 13:06:53;;;;;;;10.87;2.47;;;19.80;86.70;;;;;;5050239;28;20219;-69
2022/12/29 13:09:29;;;;;;;6.37;2.27;;;19.80;86.60;;;;;;5045843;28;20193;-70
2022/12/29 13:12:14;;;;;;;9.73;2.20;;;19.80;86.70;;;;;;5049220;28;20222;-69
2022/12/29 13:15:02;;;;;;;6.00;2.10;;;20.00;86.70;;;;;;5051282;28;20207;-70
2022/12/29 13:18:10;;;;;;;10.27;2.80;;;20.30;85.30;;;;;;5040151;28;20187;-70
2022/12/29 13:20:57;;;;;;;10.00;2.57;;;20.50;84.20;;;;;;5049342;28;20176;-70
2022/12/29 13:23:48;;;;;;;10.17;2.27;;;20.50;84.00;;;;;;5036908;28;20181;-72
2022/12/29 13:26:20;;;;;;;8.27;2.10;;;20.60;83.50;;;;;;5048684;28;20219;-72
2022/12/29 13:28:54;;;;;;;13.57;2.83;;;20.70;83.50;;;;;;5048753;28;20275;-69
2022/12/29 13:31:56;;;;;;;8.57;2.40;;;20.70;83.20;;;;;;5052828;28;20639;-71
2022/12/29 13:34:47;;;;;;;12.23;2.50;;;20.80;83.00;;;;;;5043649;28;20172;-72
2022/12/29 13:37:19;;;;;;;9.17;2.10;;;20.70;83.00;;;;;;5054783;28;20187;-70
2022/12/29 13:39:57;;;;;;;8.57;2.00;;;20.70;82.60;;;;;;5047154;28;20184;-71
2022/12/29 13:42:26;;;;;;;9.20;2.23;;;20.70;82.80;;;;;;5046615;28;20184;-69
2022/12/29 13:44:56;;;;;;;8.53;2.50;;;20.80;82.30;;;;;;5046925;28;20623;-71